createdAt,value
2018-07-15T00:01:01.355Z,84.83
2018-07-15T00:03:30.917Z,85.17
2018-07-15T00:05:59.842Z,85.11
2018-07-15T00:08:28.777Z,85.53
2018-07-15T00:10:59.268Z,85.32
2018-07-15T00:13:28.013Z,85.81
2018-07-15T00:15:57.095Z,85.72
2018-07-15T00:18:25.867Z,85.72
2018-07-15T00:20:54.344Z,86.41
2018-07-15T00:23:23.653Z,86.10
2018-07-15T00:25:54.050Z,86.17
2018-07-15T00:28:24.902Z,86.16
2018-07-15T00:30:54.606Z,86.23
2018-07-15T00:33:24.140Z,86.30
2018-07-15T00:35:52.935Z,86.06
2018-07-15T00:38:21.792Z,86.53
2018-07-15T00:40:50.629Z,87.13
2018-07-15T00:43:19.565Z,86.53
2018-07-15T00:45:48.449Z,86.62
2018-07-15T00:48:19.958Z,86.67
2018-07-15T00:50:48.925Z,86.79
2018-07-15T00:53:19.716Z,87.32
2018-07-15T00:55:48.447Z,86.96
2018-07-15T00:58:17.131Z,87.71
2018-07-15T01:00:50.966Z,87.90
2018-07-15T01:03:19.488Z,87.97
2018-07-15T01:05:48.121Z,87.59
2018-07-15T01:08:16.766Z,87.88
2018-07-15T01:10:45.382Z,88.00
2018-07-15T01:13:14.187Z,87.99
2018-07-15T01:15:42.830Z,87.82
2018-07-15T01:18:11.667Z,87.96
2018-07-15T01:20:40.340Z,87.71
2018-07-15T01:23:09.019Z,87.81
2018-07-15T01:25:37.674Z,87.95
2018-07-15T01:28:06.352Z,88.67
2018-07-15T01:30:35.161Z,88.94
2018-07-15T01:33:03.699Z,88.77
2018-07-15T01:35:32.377Z,88.80
2018-07-15T01:38:01.040Z,88.56
2018-07-15T01:40:29.703Z,89.07
2018-07-15T01:42:58.570Z,88.86
2018-07-15T01:45:27.236Z,89.38
2018-07-15T01:47:55.934Z,88.71
2018-07-15T01:50:24.536Z,88.89
2018-07-15T01:52:53.173Z,89.27
2018-07-15T01:55:21.931Z,89.42
2018-07-15T01:57:51.513Z,89.65
2018-07-15T02:00:20.185Z,89.72
2018-07-15T02:02:48.839Z,89.89
2018-07-15T02:05:17.559Z,89.82
2018-07-15T02:07:46.267Z,89.40
2018-07-15T02:10:14.748Z,89.67
2018-07-15T02:12:43.393Z,89.52
2018-07-15T02:15:11.991Z,89.75
2018-07-15T02:17:40.694Z,89.30
2018-07-15T02:20:09.368Z,89.81
2018-07-15T02:22:38.071Z,89.96
2018-07-15T02:25:06.891Z,90.05
2018-07-15T02:27:35.427Z,89.79
2018-07-15T02:30:04.037Z,89.89
2018-07-15T02:32:32.689Z,90.40
2018-07-15T02:35:01.322Z,90.12
2018-07-15T02:37:29.979Z,90.44
2018-07-15T02:39:58.719Z,90.54
2018-07-15T02:42:27.428Z,90.69
2018-07-15T02:44:56.092Z,90.89
2018-07-15T02:47:24.803Z,90.71
2018-07-15T02:49:53.496Z,90.35
2018-07-15T02:52:22.151Z,90.37
2018-07-15T02:54:52.108Z,91.29
2018-07-15T02:57:20.688Z,90.60
2018-07-15T02:59:49.335Z,90.96
2018-07-15T03:02:18.018Z,91.17
2018-07-15T03:04:46.667Z,91.20
2018-07-15T03:07:15.293Z,91.47
2018-07-15T03:09:43.883Z,90.80
2018-07-15T03:12:12.562Z,91.14
2018-07-15T03:14:41.190Z,90.74
2018-07-15T03:17:09.798Z,91.13
2018-07-15T03:19:38.371Z,91.14
2018-07-15T03:22:07.051Z,91.49
2018-07-15T03:24:35.756Z,91.22
2018-07-15T03:27:04.415Z,91.71
2018-07-15T03:29:33.055Z,91.39
2018-07-15T03:32:01.843Z,91.13
2018-07-15T03:34:30.352Z,91.25
2018-07-15T03:36:58.975Z,91.71
2018-07-15T03:39:27.643Z,91.65
2018-07-15T03:41:56.237Z,91.36
2018-07-15T03:44:24.926Z,91.28
2018-07-15T03:46:53.744Z,91.22
2018-07-15T03:49:22.499Z,91.37
2018-07-15T03:51:51.109Z,91.80
2018-07-15T03:54:19.711Z,91.78
2018-07-15T03:56:48.361Z,91.75
2018-07-15T03:59:16.952Z,91.46
2018-07-15T04:01:45.547Z,91.60
2018-07-15T04:04:14.167Z,92.15
2018-07-15T04:06:43.230Z,92.01
2018-07-15T04:09:11.878Z,92.08
2018-07-15T04:11:40.470Z,92.11
2018-07-15T04:14:12.339Z,92.15
2018-07-15T04:16:41.019Z,92.09
2018-07-15T04:19:09.527Z,92.33
2018-07-15T04:21:38.162Z,91.89
2018-07-15T04:24:06.915Z,92.42
2018-07-15T04:26:35.604Z,92.33
2018-07-15T04:29:04.199Z,91.88
2018-07-15T04:31:32.963Z,92.75
2018-07-15T04:34:01.672Z,92.68
2018-07-15T04:36:30.315Z,92.07
2018-07-15T04:38:59.340Z,92.43
2018-07-15T04:41:27.976Z,92.63
2018-07-15T04:43:57.126Z,92.77
2018-07-15T04:46:25.702Z,92.47
2018-07-15T04:48:54.213Z,92.73
2018-07-15T04:51:22.811Z,92.48
2018-07-15T04:53:51.512Z,92.42
2018-07-15T04:56:20.323Z,92.60
2018-07-15T04:58:49.473Z,92.33
2018-07-15T05:01:18.123Z,92.72
2018-07-15T05:03:46.848Z,92.45
2018-07-15T05:06:16.091Z,92.17
2018-07-15T05:08:44.888Z,92.85
2018-07-15T05:11:13.619Z,92.61
2018-07-15T05:13:42.287Z,92.66
2018-07-15T05:16:10.949Z,92.15
2018-07-15T05:18:40.666Z,92.35
2018-07-15T05:21:09.332Z,92.67
2018-07-15T05:23:40.043Z,92.39
2018-07-15T05:26:08.695Z,92.51
2018-07-15T05:28:37.409Z,92.25
2018-07-15T05:31:06.091Z,92.03
2018-07-15T05:33:34.881Z,92.00
2018-07-15T05:36:03.536Z,92.16
2018-07-15T05:38:32.249Z,91.99
2018-07-15T05:41:00.809Z,92.06
2018-07-15T05:43:29.361Z,91.89
2018-07-15T05:45:58.120Z,91.94
2018-07-15T05:48:26.733Z,91.72
2018-07-15T05:50:55.597Z,91.78
2018-07-15T05:53:24.405Z,91.53
2018-07-15T05:55:52.924Z,91.31
2018-07-15T05:58:21.655Z,90.96
2018-07-15T06:00:50.272Z,90.76
2018-07-15T06:03:19.027Z,90.87
2018-07-15T06:05:47.646Z,90.62
2018-07-15T06:08:16.271Z,90.51
2018-07-15T06:10:45.017Z,90.09
2018-07-15T06:13:13.741Z,88.95
2018-07-15T06:15:42.395Z,89.85
2018-07-15T06:18:11.454Z,89.08
2018-07-15T06:20:40.235Z,88.81
2018-07-15T06:23:09.548Z,88.76
2018-07-15T06:25:38.280Z,87.88
2018-07-15T06:28:06.876Z,87.80
2018-07-15T06:30:35.568Z,86.89
2018-07-15T06:33:04.709Z,86.57
2018-07-15T06:35:33.457Z,87.00
2018-07-15T06:38:02.176Z,86.19
2018-07-15T06:40:30.863Z,85.56
2018-07-15T06:42:59.680Z,85.38
2018-07-15T06:45:28.313Z,84.20
2018-07-15T06:47:57.083Z,84.14
2018-07-15T06:50:25.735Z,83.22
2018-07-15T06:52:54.419Z,82.48
2018-07-15T06:55:23.194Z,80.81
2018-07-15T06:57:51.814Z,80.62
2018-07-15T07:00:21.347Z,79.69
2018-07-15T07:02:49.875Z,78.63
2018-07-15T07:05:18.555Z,78.52
2018-07-15T07:07:47.213Z,76.44
2018-07-15T07:10:15.835Z,76.33
2018-07-15T07:12:45.706Z,75.75
2018-07-15T07:15:14.421Z,75.07
2018-07-15T07:17:43.079Z,73.87
2018-07-15T07:20:11.805Z,73.23
2018-07-15T07:22:40.448Z,73.49
2018-07-15T07:25:09.239Z,72.68
2018-07-15T07:27:37.886Z,71.18
2018-07-15T07:30:06.521Z,71.21
2018-07-15T07:32:35.183Z,70.78
2018-07-15T07:35:03.755Z,69.69
2018-07-15T07:37:32.433Z,69.21
2018-07-15T07:40:01.048Z,67.55
2018-07-15T07:42:29.701Z,67.32
2018-07-15T07:44:58.484Z,66.59
2018-07-15T07:47:27.014Z,66.41
2018-07-15T07:49:55.768Z,65.37
2018-07-15T07:52:24.465Z,64.41
2018-07-15T07:54:53.126Z,64.42
2018-07-15T07:57:21.862Z,63.94
2018-07-15T07:59:50.573Z,62.83
2018-07-15T08:02:19.300Z,63.07
2018-07-15T08:04:47.902Z,61.60
2018-07-15T08:07:16.677Z,60.28
2018-07-15T08:09:45.319Z,60.21
2018-07-15T08:12:13.902Z,60.90
2018-07-15T08:14:43.479Z,60.32
2018-07-15T08:17:12.160Z,59.62
2018-07-15T08:19:40.894Z,59.58
2018-07-15T08:22:09.598Z,59.16
2018-07-15T08:24:38.361Z,58.09
2018-07-15T08:27:07.055Z,57.59
2018-07-15T08:29:36.376Z,57.13
2018-07-15T08:32:05.073Z,57.11
2018-07-15T08:34:33.760Z,56.67
2018-07-15T08:37:02.458Z,55.46
2018-07-15T08:39:31.121Z,55.89
2018-07-15T08:41:59.681Z,55.30
2018-07-15T08:44:28.379Z,54.13
2018-07-15T08:46:57.153Z,53.76
2018-07-15T08:49:25.805Z,53.59
2018-07-15T08:51:54.569Z,52.93
2018-07-15T08:54:23.182Z,52.71
2018-07-15T08:56:51.854Z,52.91
2018-07-15T08:59:20.568Z,52.79
2018-07-15T09:01:49.265Z,52.99
2018-07-15T09:04:17.951Z,51.59
2018-07-15T09:06:46.607Z,52.58
2018-07-15T09:09:15.273Z,52.03
2018-07-15T09:11:43.862Z,50.81
2018-07-15T09:14:12.493Z,50.57
2018-07-15T09:16:41.249Z,50.38
2018-07-15T09:19:09.817Z,50.01
2018-07-15T09:21:38.497Z,49.75
2018-07-15T09:24:07.448Z,49.60
2018-07-15T09:26:36.141Z,48.96
2018-07-15T09:29:04.869Z,47.72
2018-07-15T09:31:33.596Z,47.60
2018-07-15T09:34:02.280Z,47.62
2018-07-15T09:36:30.893Z,47.30
2018-07-15T09:38:59.538Z,47.66
2018-07-15T09:41:28.231Z,48.22
2018-07-15T09:43:56.918Z,47.25
2018-07-15T09:46:25.553Z,46.85
2018-07-15T09:48:54.086Z,45.98
2018-07-15T09:51:22.853Z,46.13
2018-07-15T09:53:51.502Z,45.24
2018-07-15T09:56:20.207Z,45.25
2018-07-15T09:58:48.792Z,46.80
2018-07-15T10:01:17.526Z,46.18
2018-07-15T10:03:46.230Z,44.71
2018-07-15T10:06:15.007Z,44.67
2018-07-15T10:08:43.675Z,45.25
2018-07-15T10:11:12.302Z,45.82
2018-07-15T10:13:41.825Z,45.45
2018-07-15T10:16:10.553Z,45.75
2018-07-15T10:18:39.176Z,45.33
2018-07-15T10:21:07.823Z,44.92
2018-07-15T10:23:36.413Z,44.19
2018-07-15T10:26:05.144Z,44.41
2018-07-15T10:28:33.755Z,43.09
2018-07-15T10:31:02.557Z,43.51
2018-07-15T10:33:31.211Z,44.02
2018-07-15T10:35:59.948Z,43.15
2018-07-15T10:38:28.665Z,42.67
2018-07-15T10:40:57.446Z,40.56
2018-07-15T10:43:26.151Z,39.51
2018-07-15T10:45:57.823Z,40.19
2018-07-15T10:48:26.547Z,39.92
2018-07-15T10:50:55.258Z,39.08
2018-07-15T10:53:24.070Z,39.91
2018-07-15T10:55:52.753Z,40.03
2018-07-15T10:58:21.400Z,39.58
2018-07-15T11:00:50.053Z,40.02
2018-07-15T11:03:18.797Z,39.29
2018-07-15T11:05:47.443Z,39.24
2018-07-15T11:08:16.239Z,38.14
2018-07-15T11:10:44.942Z,38.54
2018-07-15T11:13:13.663Z,37.88
2018-07-15T11:15:42.296Z,37.95
2018-07-15T11:18:11.074Z,38.04
2018-07-15T11:20:39.826Z,37.99
2018-07-15T11:23:08.514Z,36.80
2018-07-15T11:25:37.078Z,36.42
2018-07-15T11:28:05.928Z,36.16
2018-07-15T11:30:34.661Z,36.29
2018-07-15T11:33:03.409Z,36.24
2018-07-15T11:35:32.107Z,36.10
2018-07-15T11:38:00.800Z,35.18
2018-07-15T11:40:29.440Z,34.47
2018-07-15T11:42:58.113Z,34.64
2018-07-15T11:45:26.767Z,34.22
2018-07-15T11:47:55.527Z,34.54
2018-07-15T11:50:24.105Z,33.33
2018-07-15T11:52:52.851Z,33.68
2018-07-15T11:55:21.595Z,33.81
2018-07-15T11:57:50.329Z,33.70
2018-07-15T12:00:18.985Z,32.63
2018-07-15T12:02:47.714Z,32.70
2018-07-15T12:05:16.352Z,31.48
2018-07-15T12:07:45.087Z,31.50
2018-07-15T12:10:13.732Z,32.45
2018-07-15T12:12:42.433Z,32.51
2018-07-15T12:15:10.994Z,32.03
2018-07-15T12:17:39.612Z,31.57
2018-07-15T12:20:08.176Z,30.81
2018-07-15T12:22:36.941Z,31.18
2018-07-15T12:25:05.688Z,31.18
2018-07-15T12:27:34.454Z,30.05
2018-07-15T12:30:03.033Z,28.37
2018-07-15T12:32:31.729Z,29.79
2018-07-15T12:35:00.531Z,30.24
2018-07-15T12:37:29.147Z,30.29
2018-07-15T12:39:57.747Z,30.36
2018-07-15T12:42:26.373Z,27.10
2018-07-15T12:44:54.954Z,27.12
2018-07-15T12:47:23.617Z,22.15
2018-07-15T12:49:52.289Z,20.23
2018-07-15T12:52:21.018Z,18.46
2018-07-15T12:54:49.742Z,18.17
2018-07-15T12:57:18.404Z,16.92
2018-07-15T12:59:47.063Z,15.19
2018-07-15T13:02:15.740Z,14.81
2018-07-15T13:04:44.519Z,14.90
2018-07-15T13:07:13.260Z,14.09
2018-07-15T13:09:41.955Z,14.62
2018-07-15T13:12:10.690Z,14.07
2018-07-15T13:14:39.418Z,13.89
2018-07-15T13:17:08.077Z,12.99
2018-07-15T13:19:37.193Z,11.37
2018-07-15T13:22:06.020Z,13.67
2018-07-15T13:24:34.797Z,13.57
2018-07-15T13:27:03.494Z,12.88
2018-07-15T13:29:32.209Z,12.30
2018-07-15T13:32:01.309Z,12.01
2018-07-15T13:34:30.059Z,12.14
2018-07-15T13:36:59.128Z,11.77
2018-07-15T13:39:28.615Z,11.57
2018-07-15T13:41:57.287Z,11.05
2018-07-15T13:44:25.915Z,11.30
2018-07-15T13:46:54.720Z,11.20
2018-07-15T13:49:23.376Z,11.13
2018-07-15T13:51:52.093Z,10.95
2018-07-15T13:54:20.851Z,11.04
2018-07-15T13:56:49.528Z,11.06
2018-07-15T13:59:18.199Z,10.79
2018-07-15T14:01:46.854Z,9.58
2018-07-15T14:04:15.558Z,10.78
2018-07-15T14:06:44.108Z,10.65
2018-07-15T14:09:12.817Z,10.37
2018-07-15T14:11:41.451Z,11.09
2018-07-15T14:14:10.131Z,11.11
2018-07-15T14:16:38.776Z,10.19
2018-07-15T14:19:08.151Z,10.30
2018-07-15T14:21:36.712Z,10.50
2018-07-15T14:24:05.483Z,10.21
2018-07-15T14:26:34.152Z,9.31
2018-07-15T14:29:02.851Z,9.68
2018-07-15T14:31:31.552Z,9.51
2018-07-15T14:34:00.248Z,9.90
2018-07-15T14:36:28.886Z,10.18
2018-07-15T14:38:57.629Z,9.79
2018-07-15T14:41:26.348Z,10.00
2018-07-15T14:43:55.103Z,10.42
2018-07-15T14:46:23.742Z,11.00
2018-07-15T14:48:52.446Z,10.81
2018-07-15T14:51:21.150Z,10.95
2018-07-15T14:53:49.968Z,11.00
2018-07-15T14:56:18.674Z,11.24
2018-07-15T14:58:47.421Z,10.54
2018-07-15T15:01:16.055Z,9.51
2018-07-15T15:03:44.780Z,9.34
2018-07-15T15:06:13.346Z,9.02
2018-07-15T15:08:42.153Z,9.43
2018-07-15T15:11:10.945Z,9.22
2018-07-15T15:13:39.838Z,9.16
2018-07-15T15:16:08.490Z,9.33
2018-07-15T15:18:37.297Z,9.97
2018-07-15T15:21:06.242Z,10.01
2018-07-15T15:23:34.895Z,10.47
2018-07-15T15:26:03.712Z,10.28
2018-07-15T15:28:32.417Z,9.85
2018-07-15T15:31:01.155Z,9.86
2018-07-15T15:33:29.896Z,10.34
2018-07-15T15:35:58.562Z,9.59
2018-07-15T15:38:28.249Z,9.90
2018-07-15T15:40:56.835Z,10.53
2018-07-15T15:43:25.576Z,10.06
2018-07-15T15:45:54.384Z,9.87
2018-07-15T15:48:22.973Z,9.17
2018-07-15T15:50:51.553Z,9.60
2018-07-15T15:53:20.338Z,9.65
2018-07-15T15:55:49.128Z,9.33
2018-07-15T15:58:17.755Z,8.19
2018-07-15T16:00:46.403Z,10.06
2018-07-15T16:03:15.233Z,9.96
2018-07-15T16:05:44.068Z,9.70
2018-07-15T16:08:12.754Z,9.68
2018-07-15T16:10:41.454Z,9.27
2018-07-15T16:13:10.171Z,9.18
2018-07-15T16:15:38.997Z,9.43
2018-07-15T16:18:07.622Z,10.14
2018-07-15T16:20:36.344Z,10.27
2018-07-15T16:23:05.035Z,10.65
2018-07-15T16:25:33.685Z,10.66
2018-07-15T16:28:02.357Z,10.08
2018-07-15T16:30:31.079Z,10.67
2018-07-15T16:32:59.743Z,10.73
2018-07-15T16:35:30.490Z,10.84
2018-07-15T16:37:59.247Z,11.11
2018-07-15T16:40:27.953Z,11.51
2018-07-15T16:42:56.575Z,11.92
2018-07-15T16:45:25.228Z,11.69
2018-07-15T16:47:53.833Z,11.67
2018-07-15T16:50:22.478Z,12.30
2018-07-15T16:52:51.277Z,12.70
2018-07-15T16:55:19.970Z,13.04
2018-07-15T16:57:48.563Z,13.28
2018-07-15T17:00:17.243Z,12.94
2018-07-15T17:02:45.779Z,13.27
2018-07-15T17:05:14.354Z,13.24
2018-07-15T17:07:43.016Z,12.74
2018-07-15T17:10:11.670Z,13.43
2018-07-15T17:12:40.205Z,13.33
2018-07-15T17:15:09.010Z,13.45
2018-07-15T17:17:37.552Z,13.13
2018-07-15T17:20:06.339Z,13.34
2018-07-15T17:22:34.914Z,14.48
2018-07-15T17:25:03.486Z,14.75
2018-07-15T17:27:32.245Z,14.97
2018-07-15T17:30:01.010Z,15.60
2018-07-15T17:32:29.690Z,15.96
2018-07-15T17:34:58.906Z,16.35
2018-07-15T17:37:27.486Z,16.24
2018-07-15T17:39:56.210Z,17.14
2018-07-15T17:42:24.867Z,17.44
2018-07-15T17:44:53.542Z,17.48
2018-07-15T17:47:22.260Z,17.95
2018-07-15T17:49:50.963Z,18.15
2018-07-15T17:52:19.638Z,18.59
2018-07-15T17:54:48.296Z,19.05
2018-07-15T17:57:16.879Z,18.95
2018-07-15T17:59:45.525Z,19.39
2018-07-15T18:02:14.142Z,19.49
2018-07-15T18:04:43.761Z,20.85
2018-07-15T18:07:12.479Z,20.64
2018-07-15T18:09:41.179Z,21.96
2018-07-15T18:12:09.967Z,21.35
2018-07-15T18:14:38.586Z,21.67
2018-07-15T18:17:07.246Z,22.51
2018-07-15T18:19:35.908Z,24.28
2018-07-15T18:22:04.607Z,24.15
2018-07-15T18:24:33.464Z,26.38
2018-07-15T18:27:02.205Z,26.75
2018-07-15T18:29:31.176Z,28.03
2018-07-15T18:31:59.965Z,29.00
2018-07-15T18:34:28.780Z,29.10
2018-07-15T18:36:57.384Z,30.54
2018-07-15T18:39:27.072Z,30.89
2018-07-15T18:41:55.714Z,32.27
2018-07-15T18:44:24.316Z,32.46
2018-07-15T18:46:53.199Z,33.62
2018-07-15T18:49:21.838Z,34.24
2018-07-15T18:51:50.639Z,34.66
2018-07-15T18:54:19.330Z,35.47
2018-07-15T18:56:48.025Z,36.31
2018-07-15T18:59:16.593Z,37.42
2018-07-15T19:01:45.197Z,37.68
2018-07-15T19:04:13.831Z,38.77
2018-07-15T19:06:42.535Z,39.66
2018-07-15T19:09:11.081Z,40.58
2018-07-15T19:11:39.795Z,42.06
2018-07-15T19:14:08.454Z,43.04
2018-07-15T19:16:36.991Z,44.51
2018-07-15T19:19:05.831Z,44.97
2018-07-15T19:21:34.506Z,45.79
2018-07-15T19:24:03.249Z,46.94
2018-07-15T19:26:32.016Z,48.38
2018-07-15T19:29:00.768Z,49.15
2018-07-15T19:31:29.361Z,50.06
2018-07-15T19:33:58.036Z,50.55
2018-07-15T19:36:27.023Z,51.08
2018-07-15T19:38:55.723Z,51.85
2018-07-15T19:41:24.315Z,52.30
2018-07-15T19:43:53.046Z,53.49
2018-07-15T19:46:21.769Z,53.96
2018-07-15T19:48:50.295Z,54.20
2018-07-15T19:51:18.902Z,55.29
2018-07-15T19:53:47.437Z,55.49
2018-07-15T19:56:16.159Z,55.85
2018-07-15T19:58:44.854Z,56.55
2018-07-15T20:01:13.502Z,56.52
2018-07-15T20:03:42.123Z,57.23
2018-07-15T20:06:10.835Z,57.72
2018-07-15T20:08:39.393Z,58.14
2018-07-15T20:11:08.097Z,58.70
2018-07-15T20:13:36.735Z,59.32
2018-07-15T20:16:05.506Z,59.69
2018-07-15T20:18:34.186Z,60.22
2018-07-15T20:21:02.878Z,60.22
2018-07-15T20:23:31.401Z,61.35
2018-07-15T20:26:00.072Z,61.90
2018-07-15T20:28:28.788Z,62.17
2018-07-15T20:30:57.477Z,62.33
2018-07-15T20:33:26.214Z,62.77
2018-07-15T20:35:54.920Z,63.30
2018-07-15T20:38:23.557Z,64.26
2018-07-15T20:40:52.437Z,64.58
2018-07-15T20:43:21.054Z,64.97
2018-07-15T20:45:49.894Z,65.13
2018-07-15T20:48:19.575Z,65.97
2018-07-15T20:50:49.090Z,66.17
2018-07-15T20:53:17.755Z,66.59
2018-07-15T20:55:46.280Z,67.29
2018-07-15T20:58:14.963Z,67.45
2018-07-15T21:00:43.644Z,67.98
2018-07-15T21:03:12.329Z,67.89
2018-07-15T21:05:40.970Z,68.25
2018-07-15T21:08:09.598Z,68.43
2018-07-15T21:10:38.192Z,68.64
2018-07-15T21:13:06.926Z,68.96
2018-07-15T21:15:35.523Z,69.32
2018-07-15T21:18:04.253Z,69.52
2018-07-15T21:20:32.750Z,69.53
2018-07-15T21:23:01.516Z,69.87
2018-07-15T21:25:30.533Z,69.68
2018-07-15T21:27:59.594Z,69.97
2018-07-15T21:30:28.075Z,70.29
2018-07-15T21:32:56.773Z,70.83
2018-07-15T21:35:25.392Z,70.70
2018-07-15T21:37:54.257Z,71.06
2018-07-15T21:40:22.823Z,71.22
2018-07-15T21:42:51.474Z,71.56
2018-07-15T21:45:20.100Z,71.75
2018-07-15T21:47:48.661Z,72.31
2018-07-15T21:50:17.386Z,72.51
2018-07-15T21:52:45.980Z,72.50
2018-07-15T21:55:14.504Z,72.81
2018-07-15T21:57:43.064Z,73.10
2018-07-15T22:00:11.575Z,73.09
2018-07-15T22:02:40.220Z,73.54
2018-07-15T22:05:08.993Z,73.67
2018-07-15T22:07:48.791Z,73.96
2018-07-15T22:10:30.327Z,74.07
2018-07-15T22:12:59.085Z,74.64
2018-07-15T22:15:28.768Z,74.90
2018-07-15T22:17:57.486Z,75.12
2018-07-15T22:20:26.138Z,75.21
2018-07-15T22:22:54.659Z,75.50
2018-07-15T22:25:23.326Z,75.28
2018-07-15T22:27:51.935Z,75.93
2018-07-15T22:30:20.646Z,76.09
2018-07-15T22:32:50.136Z,76.16
2018-07-15T22:35:18.771Z,76.65
2018-07-15T22:37:47.518Z,76.76
2018-07-15T22:40:16.026Z,76.96
2018-07-15T22:42:44.567Z,77.06
2018-07-15T22:45:13.250Z,77.38
2018-07-15T22:47:42.001Z,77.51
2018-07-15T22:50:10.726Z,77.58
2018-07-15T22:52:39.474Z,77.89
2018-07-15T22:55:08.047Z,78.07
2018-07-15T22:57:36.881Z,78.36
2018-07-15T23:00:06.106Z,78.56
2018-07-15T23:02:34.720Z,78.66
2018-07-15T23:05:40.566Z,79.15
2018-07-15T23:08:09.524Z,79.36
2018-07-15T23:10:38.169Z,79.37
2018-07-15T23:13:07.923Z,79.57
2018-07-15T23:15:37.074Z,79.94
2018-07-15T23:18:09.083Z,80.08
2018-07-15T23:20:38.556Z,80.10
2018-07-15T23:23:08.364Z,80.41
2018-07-15T23:25:37.631Z,80.47
2018-07-15T23:28:08.332Z,80.55
2018-07-15T23:30:37.941Z,80.47
2018-07-15T23:33:07.094Z,80.83
2018-07-15T23:35:35.687Z,80.43
2018-07-15T23:38:04.387Z,80.89
2018-07-15T23:40:33.051Z,81.25
2018-07-15T23:43:02.352Z,81.18
2018-07-15T23:45:32.144Z,81.13
2018-07-15T23:48:02.658Z,81.45
2018-07-15T23:50:31.192Z,81.51
2018-07-15T23:52:59.899Z,81.95
2018-07-15T23:55:28.511Z,81.82
2018-07-15T23:57:57.185Z,82.29
